sensor_id;sensor_type;location;lat;lon;timestamp;temperature;humidity
10304;DHT22;5197;48.152;8.590;2023-12-20T00:02:17;5.20;5.50
10304;DHT22;5197;48.152;8.590;2023-12-20T00:04:44;5.10;5.40
10304;DHT22;5197;48.152;8.590;2023-12-20T00:07:11;5.10;5.40
10304;DHT22;5197;48.152;8.590;2023-12-20T00:09:39;5.00;5.30
10304;DHT22;5197;48.152;8.590;2023-12-20T00:12:06;5.00;5.10
10304;DHT22;5197;48.152;8.590;2023-12-20T00:14:33;5.00;5.20
10304;DHT22;5197;48.152;8.590;2023-12-20T00:17:00;4.90;5.10
10304;DHT22;5197;48.152;8.590;2023-12-20T00:19:27;4.90;5.10
10304;DHT22;5197;48.152;8.590;2023-12-20T00:21:54;4.90;5.10
10304;DHT22;5197;48.152;8.590;2023-12-20T00:24:21;4.90;5.10
10304;DHT22;5197;48.152;8.590;2023-12-20T00:26:48;4.90;5.20
10304;DHT22;5197;48.152;8.590;2023-12-20T00:29:15;4.90;5.20
10304;DHT22;5197;48.152;8.590;2023-12-20T00:31:42;4.90;5.20
10304;DHT22;5197;48.152;8.590;2023-12-20T00:34:09;4.90;6.30
10304;DHT22;5197;48.152;8.590;2023-12-20T00:36:37;4.90;5.40
10304;DHT22;5197;48.152;8.590;2023-12-20T00:39:04;4.90;5.50
10304;DHT22;5197;48.152;8.590;2023-12-20T00:41:31;4.90;5.50
10304;DHT22;5197;48.152;8.590;2023-12-20T00:43:58;4.90;5.60
10304;DHT22;5197;48.152;8.590;2023-12-20T00:46:25;4.90;5.80
10304;DHT22;5197;48.152;8.590;2023-12-20T00:48:52;4.90;5.80
10304;DHT22;5197;48.152;8.590;2023-12-20T00:51:19;4.90;6.10
10304;DHT22;5197;48.152;8.590;2023-12-20T00:53:46;4.90;6.00
10304;DHT22;5197;48.152;8.590;2023-12-20T00:56:16;4.90;6.10
10304;DHT22;5197;48.152;8.590;2023-12-20T00:58:43;4.90;6.20
10304;DHT22;5197;48.152;8.590;2023-12-20T01:01:10;4.80;6.10
10304;DHT22;5197;48.152;8.590;2023-12-20T01:03:37;4.90;6.30
10304;DHT22;5197;48.152;8.590;2023-12-20T01:06:05;4.90;6.40
10304;DHT22;5197;48.152;8.590;2023-12-20T01:08:32;4.90;6.60
10304;DHT22;5197;48.152;8.590;2023-12-20T01:11:04;4.90;6.70
10304;DHT22;5197;48.152;8.590;2023-12-20T01:13:32;4.90;6.70
10304;DHT22;5197;48.152;8.590;2023-12-20T01:15:59;4.90;6.80
10304;DHT22;5197;48.152;8.590;2023-12-20T01:18:26;4.90;6.90
10304;DHT22;5197;48.152;8.590;2023-12-20T01:20:53;4.90;6.90
10304;DHT22;5197;48.152;8.590;2023-12-20T01:23:20;4.90;6.90
10304;DHT22;5197;48.152;8.590;2023-12-20T01:25:48;4.90;6.90
10304;DHT22;5197;48.152;8.590;2023-12-20T01:28:15;5.00;7.00
10304;DHT22;5197;48.152;8.590;2023-12-20T01:30:42;5.00;7.30
10304;DHT22;5197;48.152;8.590;2023-12-20T01:33:10;5.00;7.30
10304;DHT22;5197;48.152;8.590;2023-12-20T01:35:37;5.00;7.50
10304;DHT22;5197;48.152;8.590;2023-12-20T01:38:04;5.00;7.50
10304;DHT22;5197;48.152;8.590;2023-12-20T01:40:31;5.00;7.50
10304;DHT22;5197;48.152;8.590;2023-12-20T01:43:02;5.00;7.50
10304;DHT22;5197;48.152;8.590;2023-12-20T01:45:31;5.00;7.70
10304;DHT22;5197;48.152;8.590;2023-12-20T01:47:59;5.00;7.80
10304;DHT22;5197;48.152;8.590;2023-12-20T01:50:27;5.00;7.90
10304;DHT22;5197;48.152;8.590;2023-12-20T01:52:56;5.10;8.00
10304;DHT22;5197;48.152;8.590;2023-12-20T01:55:25;5.10;8.10
10304;DHT22;5197;48.152;8.590;2023-12-20T01:57:54;5.00;8.20
10304;DHT22;5197;48.152;8.590;2023-12-20T02:00:21;5.10;8.30
10304;DHT22;5197;48.152;8.590;2023-12-20T02:02:54;5.00;8.40
10304;DHT22;5197;48.152;8.590;2023-12-20T02:05:22;5.10;8.60
10304;DHT22;5197;48.152;8.590;2023-12-20T02:07:50;5.10;8.70
10304;DHT22;5197;48.152;8.590;2023-12-20T02:10:17;5.10;8.80
10304;DHT22;5197;48.152;8.590;2023-12-20T02:12:44;5.10;9.70
10304;DHT22;5197;48.152;8.590;2023-12-20T02:15:11;5.10;8.90
10304;DHT22;5197;48.152;8.590;2023-12-20T02:17:39;5.10;9.00
10304;DHT22;5197;48.152;8.590;2023-12-20T02:20:07;5.00;9.10
10304;DHT22;5197;48.152;8.590;2023-12-20T02:22:34;5.00;9.30
10304;DHT22;5197;48.152;8.590;2023-12-20T02:25:01;5.10;9.40
10304;DHT22;5197;48.152;8.590;2023-12-20T02:27:29;5.10;9.60
10304;DHT22;5197;48.152;8.590;2023-12-20T02:29:56;5.00;9.70
10304;DHT22;5197;48.152;8.590;2023-12-20T02:32:24;5.10;9.80
10304;DHT22;5197;48.152;8.590;2023-12-20T02:34:55;5.10;9.90
10304;DHT22;5197;48.152;8.590;2023-12-20T02:37:22;5.00;9.90
10304;DHT22;5197;48.152;8.590;2023-12-20T02:39:49;5.10;10.30
10304;DHT22;5197;48.152;8.590;2023-12-20T02:42:17;5.10;10.30
10304;DHT22;5197;48.152;8.590;2023-12-20T02:44:43;5.10;10.40
10304;DHT22;5197;48.152;8.590;2023-12-20T02:47:10;5.10;10.40
10304;DHT22;5197;48.152;8.590;2023-12-20T02:49:37;5.10;10.60
10304;DHT22;5197;48.152;8.590;2023-12-20T02:52:05;5.10;10.80
10304;DHT22;5197;48.152;8.590;2023-12-20T02:54:32;5.10;11.00
10304;DHT22;5197;48.152;8.590;2023-12-20T02:56:59;5.10;11.10
10304;DHT22;5197;48.152;8.590;2023-12-20T02:59:26;5.10;11.40
10304;DHT22;5197;48.152;8.590;2023-12-20T03:01:53;5.10;11.80
10304;DHT22;5197;48.152;8.590;2023-12-20T03:04:20;5.20;12.10
10304;DHT22;5197;48.152;8.590;2023-12-20T03:06:47;5.20;12.30
10304;DHT22;5197;48.152;8.590;2023-12-20T03:09:14;5.10;12.80
10304;DHT22;5197;48.152;8.590;2023-12-20T03:11:41;5.10;13.00
10304;DHT22;5197;48.152;8.590;2023-12-20T03:14:08;5.10;13.00
10304;DHT22;5197;48.152;8.590;2023-12-20T03:16:35;5.10;13.30
10304;DHT22;5197;48.152;8.590;2023-12-20T03:19:03;5.10;13.20
10304;DHT22;5197;48.152;8.590;2023-12-20T03:21:30;5.10;13.10
10304;DHT22;5197;48.152;8.590;2023-12-20T03:23:58;5.10;13.00
10304;DHT22;5197;48.152;8.590;2023-12-20T03:26:25;5.10;13.10
10304;DHT22;5197;48.152;8.590;2023-12-20T03:28:52;5.20;13.50
10304;DHT22;5197;48.152;8.590;2023-12-20T03:31:19;5.20;13.40
10304;DHT22;5197;48.152;8.590;2023-12-20T03:33:48;5.20;13.50
10304;DHT22;5197;48.152;8.590;2023-12-20T03:36:15;5.20;13.30
10304;DHT22;5197;48.152;8.590;2023-12-20T03:38:42;5.20;13.60
10304;DHT22;5197;48.152;8.590;2023-12-20T03:41:09;5.20;13.50
10304;DHT22;5197;48.152;8.590;2023-12-20T03:43:36;5.20;13.60
10304;DHT22;5197;48.152;8.590;2023-12-20T03:46:03;5.20;13.70
10304;DHT22;5197;48.152;8.590;2023-12-20T03:48:31;5.20;13.70
10304;DHT22;5197;48.152;8.590;2023-12-20T03:50:58;5.20;13.70
10304;DHT22;5197;48.152;8.590;2023-12-20T03:53:25;5.20;13.80
10304;DHT22;5197;48.152;8.590;2023-12-20T03:55:52;5.20;14.00
10304;DHT22;5197;48.152;8.590;2023-12-20T03:58:19;5.20;14.10
10304;DHT22;5197;48.152;8.590;2023-12-20T04:00:46;5.20;14.10
10304;DHT22;5197;48.152;8.590;2023-12-20T04:03:14;5.10;14.10
10304;DHT22;5197;48.152;8.590;2023-12-20T04:05:41;5.10;14.30
10304;DHT22;5197;48.152;8.590;2023-12-20T04:08:09;5.10;14.30
10304;DHT22;5197;48.152;8.590;2023-12-20T04:10:36;5.00;14.70
10304;DHT22;5197;48.152;8.590;2023-12-20T04:13:04;5.00;14.80
10304;DHT22;5197;48.152;8.590;2023-12-20T04:15:31;4.90;14.80
10304;DHT22;5197;48.152;8.590;2023-12-20T04:17:58;5.00;14.80
10304;DHT22;5197;48.152;8.590;2023-12-20T04:20:26;5.00;14.90
10304;DHT22;5197;48.152;8.590;2023-12-20T04:22:53;4.90;14.80
10304;DHT22;5197;48.152;8.590;2023-12-20T04:25:20;5.00;14.80
10304;DHT22;5197;48.152;8.590;2023-12-20T04:27:47;5.00;14.70
10304;DHT22;5197;48.152;8.590;2023-12-20T04:30:14;5.00;14.60
10304;DHT22;5197;48.152;8.590;2023-12-20T04:32:41;5.00;14.60
10304;DHT22;5197;48.152;8.590;2023-12-20T04:35:09;5.00;14.70
10304;DHT22;5197;48.152;8.590;2023-12-20T04:37:36;5.00;14.60
10304;DHT22;5197;48.152;8.590;2023-12-20T04:40:03;5.00;14.50
10304;DHT22;5197;48.152;8.590;2023-12-20T04:42:32;5.00;14.60
10304;DHT22;5197;48.152;8.590;2023-12-20T04:45:02;5.00;14.70
10304;DHT22;5197;48.152;8.590;2023-12-20T04:47:29;5.00;14.70
10304;DHT22;5197;48.152;8.590;2023-12-20T04:49:56;4.90;14.70
10304;DHT22;5197;48.152;8.590;2023-12-20T04:52:23;4.90;14.70
10304;DHT22;5197;48.152;8.590;2023-12-20T04:54:51;4.90;14.70
10304;DHT22;5197;48.152;8.590;2023-12-20T04:57:18;4.90;14.70
10304;DHT22;5197;48.152;8.590;2023-12-20T04:59:45;4.90;14.80
10304;DHT22;5197;48.152;8.590;2023-12-20T05:02:12;4.90;14.70
10304;DHT22;5197;48.152;8.590;2023-12-20T05:04:39;4.90;14.70
10304;DHT22;5197;48.152;8.590;2023-12-20T05:07:06;4.90;14.70
10304;DHT22;5197;48.152;8.590;2023-12-20T05:09:33;4.90;14.60
10304;DHT22;5197;48.152;8.590;2023-12-20T05:12:00;4.80;14.70
10304;DHT22;5197;48.152;8.590;2023-12-20T05:14:27;4.80;14.70
10304;DHT22;5197;48.152;8.590;2023-12-20T05:16:54;4.80;14.70
10304;DHT22;5197;48.152;8.590;2023-12-20T05:19:21;4.80;14.80
10304;DHT22;5197;48.152;8.590;2023-12-20T05:21:48;4.80;15.80
10304;DHT22;5197;48.152;8.590;2023-12-20T05:24:16;4.80;14.70
10304;DHT22;5197;48.152;8.590;2023-12-20T05:26:43;4.80;14.80
10304;DHT22;5197;48.152;8.590;2023-12-20T05:29:10;4.80;15.00
10304;DHT22;5197;48.152;8.590;2023-12-20T05:31:37;4.70;14.80
10304;DHT22;5197;48.152;8.590;2023-12-20T05:34:04;4.70;14.90
10304;DHT22;5197;48.152;8.590;2023-12-20T05:36:31;4.70;14.90
10304;DHT22;5197;48.152;8.590;2023-12-20T05:38:58;4.70;15.00
10304;DHT22;5197;48.152;8.590;2023-12-20T05:41:25;4.70;15.00
10304;DHT22;5197;48.152;8.590;2023-12-20T05:43:52;4.60;15.10
10304;DHT22;5197;48.152;8.590;2023-12-20T05:46:19;4.60;15.10
10304;DHT22;5197;48.152;8.590;2023-12-20T05:48:48;4.60;15.10
10304;DHT22;5197;48.152;8.590;2023-12-20T05:51:15;4.60;15.10
10304;DHT22;5197;48.152;8.590;2023-12-20T05:53:42;4.60;15.20
10304;DHT22;5197;48.152;8.590;2023-12-20T05:56:11;4.60;15.00
10304;DHT22;5197;48.152;8.590;2023-12-20T05:58:42;4.70;15.20
10304;DHT22;5197;48.152;8.590;2023-12-20T06:01:10;4.60;15.20
10304;DHT22;5197;48.152;8.590;2023-12-20T06:03:41;4.60;15.30
10304;DHT22;5197;48.152;8.590;2023-12-20T06:06:09;4.60;15.20
10304;DHT22;5197;48.152;8.590;2023-12-20T06:08:43;4.60;15.20
10304;DHT22;5197;48.152;8.590;2023-12-20T06:11:10;4.60;15.20
10304;DHT22;5197;48.152;8.590;2023-12-20T06:13:38;4.50;15.30
10304;DHT22;5197;48.152;8.590;2023-12-20T06:16:05;4.50;15.50
10304;DHT22;5197;48.152;8.590;2023-12-20T06:18:34;4.50;15.70
10304;DHT22;5197;48.152;8.590;2023-12-20T06:21:04;4.40;16.10
10304;DHT22;5197;48.152;8.590;2023-12-20T06:23:31;4.40;16.10
10304;DHT22;5197;48.152;8.590;2023-12-20T06:25:58;4.40;16.20
10304;DHT22;5197;48.152;8.590;2023-12-20T06:28:25;4.40;16.30
10304;DHT22;5197;48.152;8.590;2023-12-20T06:30:52;4.40;16.60
10304;DHT22;5197;48.152;8.590;2023-12-20T06:33:21;4.40;16.60
10304;DHT22;5197;48.152;8.590;2023-12-20T06:35:49;4.40;16.70
10304;DHT22;5197;48.152;8.590;2023-12-20T06:38:18;4.40;16.70
10304;DHT22;5197;48.152;8.590;2023-12-20T06:40:45;4.40;16.70
10304;DHT22;5197;48.152;8.590;2023-12-20T06:43:13;4.40;16.80
10304;DHT22;5197;48.152;8.590;2023-12-20T06:45:58;4.30;17.00
10304;DHT22;5197;48.152;8.590;2023-12-20T06:48:27;4.30;17.20
10304;DHT22;5197;48.152;8.590;2023-12-20T06:50:54;4.30;17.90
10304;DHT22;5197;48.152;8.590;2023-12-20T06:53:21;4.30;18.00
10304;DHT22;5197;48.152;8.590;2023-12-20T06:55:48;4.30;17.90
10304;DHT22;5197;48.152;8.590;2023-12-20T06:58:15;4.40;18.00
10304;DHT22;5197;48.152;8.590;2023-12-20T07:00:43;4.40;17.90
10304;DHT22;5197;48.152;8.590;2023-12-20T07:03:10;4.40;18.00
10304;DHT22;5197;48.152;8.590;2023-12-20T07:05:37;4.40;17.90
10304;DHT22;5197;48.152;8.590;2023-12-20T07:08:06;4.40;18.00
10304;DHT22;5197;48.152;8.590;2023-12-20T07:10:33;4.40;17.90
10304;DHT22;5197;48.152;8.590;2023-12-20T07:13:00;4.50;18.00
10304;DHT22;5197;48.152;8.590;2023-12-20T07:15:27;4.50;18.00
10304;DHT22;5197;48.152;8.590;2023-12-20T07:17:56;4.50;18.10
10304;DHT22;5197;48.152;8.590;2023-12-20T07:20:23;4.50;18.00
10304;DHT22;5197;48.152;8.590;2023-12-20T07:22:50;4.50;18.10
10304;DHT22;5197;48.152;8.590;2023-12-20T07:25:17;4.60;18.10
10304;DHT22;5197;48.152;8.590;2023-12-20T07:27:44;4.60;18.20
10304;DHT22;5197;48.152;8.590;2023-12-20T07:30:12;4.60;18.20
10304;DHT22;5197;48.152;8.590;2023-12-20T07:32:39;4.60;18.10
10304;DHT22;5197;48.152;8.590;2023-12-20T07:35:07;4.60;18.20
10304;DHT22;5197;48.152;8.590;2023-12-20T07:37:34;4.60;18.20
10304;DHT22;5197;48.152;8.590;2023-12-20T07:40:01;4.50;18.10
10304;DHT22;5197;48.152;8.590;2023-12-20T07:42:30;4.50;18.10
10304;DHT22;5197;48.152;8.590;2023-12-20T07:44:57;4.50;18.10
10304;DHT22;5197;48.152;8.590;2023-12-20T07:47:24;4.50;18.00
10304;DHT22;5197;48.152;8.590;2023-12-20T07:49:55;5.30;18.50
10304;DHT22;5197;48.152;8.590;2023-12-20T07:52:23;4.70;18.20
10304;DHT22;5197;48.152;8.590;2023-12-20T07:54:50;4.50;18.00
10304;DHT22;5197;48.152;8.590;2023-12-20T07:57:17;4.50;18.00
10304;DHT22;5197;48.152;8.590;2023-12-20T07:59:45;4.50;18.00
10304;DHT22;5197;48.152;8.590;2023-12-20T08:02:12;4.50;18.00
10304;DHT22;5197;48.152;8.590;2023-12-20T08:04:39;4.60;18.20
10304;DHT22;5197;48.152;8.590;2023-12-20T08:07:08;4.60;18.10
10304;DHT22;5197;48.152;8.590;2023-12-20T08:09:35;4.60;18.10
10304;DHT22;5197;48.152;8.590;2023-12-20T08:12:03;4.60;18.10
10304;DHT22;5197;48.152;8.590;2023-12-20T08:14:30;4.60;18.10
10304;DHT22;5197;48.152;8.590;2023-12-20T08:16:58;5.60;18.80
10304;DHT22;5197;48.152;8.590;2023-12-20T08:19:28;4.70;18.30
10304;DHT22;5197;48.152;8.590;2023-12-20T08:21:55;4.70;18.20
10304;DHT22;5197;48.152;8.590;2023-12-20T08:24:22;4.80;18.20
10304;DHT22;5197;48.152;8.590;2023-12-20T08:26:49;4.80;18.30
10304;DHT22;5197;48.152;8.590;2023-12-20T08:29:16;4.80;18.30
10304;DHT22;5197;48.152;8.590;2023-12-20T08:31:43;4.80;18.30
10304;DHT22;5197;48.152;8.590;2023-12-20T08:34:13;4.80;18.40
10304;DHT22;5197;48.152;8.590;2023-12-20T08:36:42;4.80;18.30
10304;DHT22;5197;48.152;8.590;2023-12-20T08:39:09;4.80;18.30
10304;DHT22;5197;48.152;8.590;2023-12-20T08:41:36;4.80;18.40
10304;DHT22;5197;48.152;8.590;2023-12-20T08:44:04;4.80;18.30
10304;DHT22;5197;48.152;8.590;2023-12-20T08:46:31;4.90;18.40
10304;DHT22;5197;48.152;8.590;2023-12-20T08:48:58;4.90;18.30
10304;DHT22;5197;48.152;8.590;2023-12-20T08:51:25;4.90;18.50
10304;DHT22;5197;48.152;8.590;2023-12-20T08:54:08;5.60;19.10
10304;DHT22;5197;48.152;8.590;2023-12-20T08:56:35;5.00;18.50
10304;DHT22;5197;48.152;8.590;2023-12-20T08:59:02;4.80;19.20
10304;DHT22;5197;48.152;8.590;2023-12-20T09:01:29;4.90;19.40
10304;DHT22;5197;48.152;8.590;2023-12-20T09:03:56;5.70;20.00
10304;DHT22;5197;48.152;8.590;2023-12-20T09:06:23;4.90;19.40
10304;DHT22;5197;48.152;8.590;2023-12-20T09:08:51;4.90;19.70
10304;DHT22;5197;48.152;8.590;2023-12-20T09:11:18;4.90;19.70
10304;DHT22;5197;48.152;8.590;2023-12-20T09:13:49;4.90;19.80
10304;DHT22;5197;48.152;8.590;2023-12-20T09:16:16;4.90;19.80
10304;DHT22;5197;48.152;8.590;2023-12-20T09:18:43;5.50;20.70
10304;DHT22;5197;48.152;8.590;2023-12-20T09:21:10;5.10;20.20
10304;DHT22;5197;48.152;8.590;2023-12-20T09:23:37;5.10;20.00
10304;DHT22;5197;48.152;8.590;2023-12-20T09:26:04;5.00;20.60
10304;DHT22;5197;48.152;8.590;2023-12-20T09:28:31;4.90;21.20
10304;DHT22;5197;48.152;8.590;2023-12-20T09:31:04;4.90;21.20
10304;DHT22;5197;48.152;8.590;2023-12-20T09:33:33;4.90;21.50
10304;DHT22;5197;48.152;8.590;2023-12-20T09:36:01;4.90;21.90
10304;DHT22;5197;48.152;8.590;2023-12-20T09:38:28;4.80;21.90
10304;DHT22;5197;48.152;8.590;2023-12-20T09:40:55;5.00;23.60
10304;DHT22;5197;48.152;8.590;2023-12-20T09:43:24;4.70;23.10
10304;DHT22;5197;48.152;8.590;2023-12-20T09:45:53;4.70;22.80
10304;DHT22;5197;48.152;8.590;2023-12-20T09:48:21;4.60;24.20
10304;DHT22;5197;48.152;8.590;2023-12-20T09:50:49;4.60;24.30
10304;DHT22;5197;48.152;8.590;2023-12-20T09:53:20;4.60;26.40
10304;DHT22;5197;48.152;8.590;2023-12-20T09:55:48;4.60;26.90
10304;DHT22;5197;48.152;8.590;2023-12-20T09:58:16;4.50;26.00
10304;DHT22;5197;48.152;8.590;2023-12-20T10:00:43;4.60;26.10
10304;DHT22;5197;48.152;8.590;2023-12-20T10:03:11;4.70;26.60
10304;DHT22;5197;48.152;8.590;2023-12-20T10:05:43;4.70;28.10
10304;DHT22;5197;48.152;8.590;2023-12-20T10:08:12;4.80;26.90
10304;DHT22;5197;48.152;8.590;2023-12-20T10:10:39;4.90;26.00
10304;DHT22;5197;48.152;8.590;2023-12-20T10:13:15;4.90;24.70
10304;DHT22;5197;48.152;8.590;2023-12-20T10:15:42;4.90;23.60
10304;DHT22;5197;48.152;8.590;2023-12-20T10:18:11;4.90;23.40
10304;DHT22;5197;48.152;8.590;2023-12-20T10:20:40;4.90;21.90
10304;DHT22;5197;48.152;8.590;2023-12-20T10:23:08;4.90;20.80
10304;DHT22;5197;48.152;8.590;2023-12-20T10:25:35;4.90;20.70
10304;DHT22;5197;48.152;8.590;2023-12-20T10:30:41;4.90;18.30
10304;DHT22;5197;48.152;8.590;2023-12-20T10:33:09;4.90;19.30
10304;DHT22;5197;48.152;8.590;2023-12-20T10:35:38;5.00;20.10
10304;DHT22;5197;48.152;8.590;2023-12-20T10:38:11;5.10;20.00
10304;DHT22;5197;48.152;8.590;2023-12-20T10:40:40;5.20;19.70
10304;DHT22;5197;48.152;8.590;2023-12-20T10:43:08;5.20;18.60
10304;DHT22;5197;48.152;8.590;2023-12-20T10:45:36;5.30;18.50
10304;DHT22;5197;48.152;8.590;2023-12-20T10:48:04;5.30;18.50
10304;DHT22;5197;48.152;8.590;2023-12-20T10:50:33;5.30;18.50
10304;DHT22;5197;48.152;8.590;2023-12-20T10:53:03;5.20;18.50
10304;DHT22;5197;48.152;8.590;2023-12-20T10:55:30;5.20;17.60
10304;DHT22;5197;48.152;8.590;2023-12-20T10:58:03;5.10;12.80
10304;DHT22;5197;48.152;8.590;2023-12-20T11:00:39;5.10;14.40
10304;DHT22;5197;48.152;8.590;2023-12-20T11:03:09;5.00;14.40
10304;DHT22;5197;48.152;8.590;2023-12-20T11:05:55;5.00;13.60
10304;DHT22;5197;48.152;8.590;2023-12-20T11:08:53;5.10;14.40
10304;DHT22;5197;48.152;8.590;2023-12-20T11:14:01;5.10;10.60
10304;DHT22;5197;48.152;8.590;2023-12-20T11:16:31;5.00;11.00
10304;DHT22;5197;48.152;8.590;2023-12-20T11:19:14;5.10;12.50
10304;DHT22;5197;48.152;8.590;2023-12-20T11:21:41;5.10;12.00
10304;DHT22;5197;48.152;8.590;2023-12-20T11:24:09;4.90;6.70
10304;DHT22;5197;48.152;8.590;2023-12-20T11:26:37;4.80;9.80
10304;DHT22;5197;48.152;8.590;2023-12-20T11:29:33;4.80;9.50
10304;DHT22;5197;48.152;8.590;2023-12-20T11:34:58;4.60;6.20
10304;DHT22;5197;48.152;8.590;2023-12-20T11:37:35;4.60;8.20
10304;DHT22;5197;48.152;8.590;2023-12-20T11:40:06;4.60;8.20
10304;DHT22;5197;48.152;8.590;2023-12-20T11:42:44;4.60;8.50
10304;DHT22;5197;48.152;8.590;2023-12-20T11:45:15;4.60;5.70
10304;DHT22;5197;48.152;8.590;2023-12-20T11:47:47;4.50;6.90
10304;DHT22;5197;48.152;8.590;2023-12-20T11:50:18;4.50;6.00
10304;DHT22;5197;48.152;8.590;2023-12-20T11:52:45;4.40;6.10
10304;DHT22;5197;48.152;8.590;2023-12-20T11:55:12;4.40;7.50
10304;DHT22;5197;48.152;8.590;2023-12-20T11:57:40;4.20;6.60
10304;DHT22;5197;48.152;8.590;2023-12-20T12:00:07;4.20;7.90
10304;DHT22;5197;48.152;8.590;2023-12-20T12:02:35;4.20;8.00
10304;DHT22;5197;48.152;8.590;2023-12-20T12:05:02;4.20;6.40
10304;DHT22;5197;48.152;8.590;2023-12-20T12:07:33;4.20;7.20
10304;DHT22;5197;48.152;8.590;2023-12-20T12:10:00;4.20;7.00
10304;DHT22;5197;48.152;8.590;2023-12-20T12:12:27;4.20;6.40
10304;DHT22;5197;48.152;8.590;2023-12-20T12:14:55;4.20;7.30
10304;DHT22;5197;48.152;8.590;2023-12-20T12:17:23;4.20;7.30
10304;DHT22;5197;48.152;8.590;2023-12-20T12:19:50;4.20;6.10
10304;DHT22;5197;48.152;8.590;2023-12-20T12:22:17;4.20;7.00
10304;DHT22;5197;48.152;8.590;2023-12-20T12:24:47;4.30;7.30
10304;DHT22;5197;48.152;8.590;2023-12-20T12:27:14;4.20;5.80
10304;DHT22;5197;48.152;8.590;2023-12-20T12:30:02;4.30;7.20
10304;DHT22;5197;48.152;8.590;2023-12-20T12:32:31;4.30;5.60
10304;DHT22;5197;48.152;8.590;2023-12-20T12:34:59;4.20;6.10
10304;DHT22;5197;48.152;8.590;2023-12-20T12:37:26;4.20;6.40
10304;DHT22;5197;48.152;8.590;2023-12-20T12:39:54;4.30;7.00
10304;DHT22;5197;48.152;8.590;2023-12-20T12:42:21;4.30;6.90
10304;DHT22;5197;48.152;8.590;2023-12-20T12:44:52;4.30;6.30
10304;DHT22;5197;48.152;8.590;2023-12-20T12:47:19;4.20;5.90
10304;DHT22;5197;48.152;8.590;2023-12-20T12:49:46;4.10;6.30
10304;DHT22;5197;48.152;8.590;2023-12-20T12:52:16;4.10;6.30
10304;DHT22;5197;48.152;8.590;2023-12-20T12:54:44;4.10;6.70
10304;DHT22;5197;48.152;8.590;2023-12-20T12:57:13;4.00;8.50
10304;DHT22;5197;48.152;8.590;2023-12-20T12:59:41;3.80;8.80
10304;DHT22;5197;48.152;8.590;2023-12-20T13:02:08;3.70;9.30
10304;DHT22;5197;48.152;8.590;2023-12-20T13:04:35;3.60;11.10
10304;DHT22;5197;48.152;8.590;2023-12-20T13:07:02;3.70;10.40
10304;DHT22;5197;48.152;8.590;2023-12-20T13:09:30;3.70;10.30
10304;DHT22;5197;48.152;8.590;2023-12-20T13:11:57;3.80;10.00
10304;DHT22;5197;48.152;8.590;2023-12-20T13:14:25;3.80;9.80
10304;DHT22;5197;48.152;8.590;2023-12-20T13:16:52;3.90;9.60
10304;DHT22;5197;48.152;8.590;2023-12-20T13:19:19;3.90;9.20
10304;DHT22;5197;48.152;8.590;2023-12-20T13:21:46;3.90;9.30
10304;DHT22;5197;48.152;8.590;2023-12-20T13:24:13;3.90;9.10
10304;DHT22;5197;48.152;8.590;2023-12-20T13:26:40;3.90;8.80
10304;DHT22;5197;48.152;8.590;2023-12-20T13:29:07;4.00;8.90
10304;DHT22;5197;48.152;8.590;2023-12-20T13:31:34;4.00;8.50
10304;DHT22;5197;48.152;8.590;2023-12-20T13:34:03;3.90;9.40
10304;DHT22;5197;48.152;8.590;2023-12-20T13:36:30;3.90;9.70
10304;DHT22;5197;48.152;8.590;2023-12-20T13:38:57;3.90;10.30
10304;DHT22;5197;48.152;8.590;2023-12-20T13:41:24;3.90;10.10
10304;DHT22;5197;48.152;8.590;2023-12-20T13:43:51;3.90;9.90
10304;DHT22;5197;48.152;8.590;2023-12-20T13:46:19;4.00;9.90
10304;DHT22;5197;48.152;8.590;2023-12-20T13:48:46;4.00;9.80
10304;DHT22;5197;48.152;8.590;2023-12-20T13:51:13;4.00;9.80
10304;DHT22;5197;48.152;8.590;2023-12-20T13:53:40;4.00;9.70
10304;DHT22;5197;48.152;8.590;2023-12-20T13:56:07;4.00;9.70
10304;DHT22;5197;48.152;8.590;2023-12-20T13:58:35;4.00;9.40
10304;DHT22;5197;48.152;8.590;2023-12-20T14:01:04;4.00;9.50
10304;DHT22;5197;48.152;8.590;2023-12-20T14:03:31;4.10;9.30
10304;DHT22;5197;48.152;8.590;2023-12-20T14:05:58;4.10;9.30
10304;DHT22;5197;48.152;8.590;2023-12-20T14:08:25;4.10;9.30
10304;DHT22;5197;48.152;8.590;2023-12-20T14:10:54;4.10;9.20
10304;DHT22;5197;48.152;8.590;2023-12-20T14:13:21;4.20;9.10
10304;DHT22;5197;48.152;8.590;2023-12-20T14:15:48;4.20;9.00
10304;DHT22;5197;48.152;8.590;2023-12-20T14:18:16;4.30;8.80
10304;DHT22;5197;48.152;8.590;2023-12-20T14:20:43;4.30;8.50
10304;DHT22;5197;48.152;8.590;2023-12-20T14:23:11;4.30;8.40
10304;DHT22;5197;48.152;8.590;2023-12-20T14:25:38;4.30;8.30
10304;DHT22;5197;48.152;8.590;2023-12-20T14:28:17;4.30;8.20
10304;DHT22;5197;48.152;8.590;2023-12-20T14:30:44;4.30;8.10
10304;DHT22;5197;48.152;8.590;2023-12-20T14:33:11;4.30;8.00
10304;DHT22;5197;48.152;8.590;2023-12-20T14:35:38;4.20;7.90
10304;DHT22;5197;48.152;8.590;2023-12-20T14:38:10;4.20;7.90
10304;DHT22;5197;48.152;8.590;2023-12-20T14:40:38;4.20;7.80
10304;DHT22;5197;48.152;8.590;2023-12-20T14:43:05;4.20;7.80
10304;DHT22;5197;48.152;8.590;2023-12-20T14:45:33;4.20;7.80
10304;DHT22;5197;48.152;8.590;2023-12-20T14:48:00;4.20;7.80
10304;DHT22;5197;48.152;8.590;2023-12-20T14:50:27;4.20;7.50
10304;DHT22;5197;48.152;8.590;2023-12-20T14:52:54;4.10;7.70
10304;DHT22;5197;48.152;8.590;2023-12-20T14:55:22;4.10;7.90
10304;DHT22;5197;48.152;8.590;2023-12-20T14:57:49;4.10;7.90
10304;DHT22;5197;48.152;8.590;2023-12-20T15:00:19;4.10;7.50
10304;DHT22;5197;48.152;8.590;2023-12-20T15:02:46;4.10;7.30
10304;DHT22;5197;48.152;8.590;2023-12-20T15:05:14;4.10;7.40
10304;DHT22;5197;48.152;8.590;2023-12-20T15:07:44;4.00;7.50
10304;DHT22;5197;48.152;8.590;2023-12-20T15:10:12;4.00;7.50
10304;DHT22;5197;48.152;8.590;2023-12-20T15:12:39;4.00;7.30
10304;DHT22;5197;48.152;8.590;2023-12-20T15:15:07;4.00;6.80
10304;DHT22;5197;48.152;8.590;2023-12-20T15:17:36;3.90;7.00
10304;DHT22;5197;48.152;8.590;2023-12-20T15:20:04;3.90;7.30
10304;DHT22;5197;48.152;8.590;2023-12-20T15:22:32;3.90;7.20
10304;DHT22;5197;48.152;8.590;2023-12-20T15:25:00;3.90;7.30
10304;DHT22;5197;48.152;8.590;2023-12-20T15:27:28;4.00;7.30
10304;DHT22;5197;48.152;8.590;2023-12-20T15:29:55;3.90;6.60
10304;DHT22;5197;48.152;8.590;2023-12-20T15:32:22;3.90;7.00
10304;DHT22;5197;48.152;8.590;2023-12-20T15:34:49;3.90;7.00
10304;DHT22;5197;48.152;8.590;2023-12-20T15:37:19;3.90;6.90
10304;DHT22;5197;48.152;8.590;2023-12-20T15:39:46;3.90;6.90
10304;DHT22;5197;48.152;8.590;2023-12-20T15:42:13;4.00;6.90
10304;DHT22;5197;48.152;8.590;2023-12-20T15:44:40;4.00;6.80
10304;DHT22;5197;48.152;8.590;2023-12-20T15:47:08;4.00;6.70
10304;DHT22;5197;48.152;8.590;2023-12-20T15:49:35;4.00;6.60
10304;DHT22;5197;48.152;8.590;2023-12-20T15:52:02;3.90;6.60
10304;DHT22;5197;48.152;8.590;2023-12-20T15:54:33;4.00;6.50
10304;DHT22;5197;48.152;8.590;2023-12-20T15:57:00;3.90;6.60
10304;DHT22;5197;48.152;8.590;2023-12-20T15:59:27;4.00;6.60
10304;DHT22;5197;48.152;8.590;2023-12-20T16:01:54;3.90;6.60
10304;DHT22;5197;48.152;8.590;2023-12-20T16:04:21;3.90;6.60
10304;DHT22;5197;48.152;8.590;2023-12-20T16:06:49;3.90;6.70
10304;DHT22;5197;48.152;8.590;2023-12-20T16:09:16;3.90;6.80
10304;DHT22;5197;48.152;8.590;2023-12-20T16:11:43;3.90;6.90
10304;DHT22;5197;48.152;8.590;2023-12-20T16:14:11;3.90;6.90
10304;DHT22;5197;48.152;8.590;2023-12-20T16:16:43;3.90;6.90
10304;DHT22;5197;48.152;8.590;2023-12-20T16:19:10;3.90;6.70
10304;DHT22;5197;48.152;8.590;2023-12-20T16:21:37;3.90;6.90
10304;DHT22;5197;48.152;8.590;2023-12-20T16:24:05;3.90;7.00